sensor_id;sensor_type;location;lat;lon;timestamp;P1;durP1;ratioP1;P2;durP2;ratioP2
14858;SDS011;7521;51.700;6.874;2024-01-16T00:02:55;18.30;;;9.90;;
14858;SDS011;7521;51.700;6.874;2024-01-16T00:06:00;16.17;;;9.85;;
14858;SDS011;7521;51.700;6.874;2024-01-16T00:09:06;19.47;;;10.03;;
14858;SDS011;7521;51.700;6.874;2024-01-16T00:12:11;21.63;;;10.03;;
14858;SDS011;7521;51.700;6.874;2024-01-16T00:15:16;19.38;;;10.48;;
14858;SDS011;7521;51.700;6.874;2024-01-16T00:18:21;17.30;;;8.83;;
14858;SDS011;7521;51.700;6.874;2024-01-16T00:21:26;21.33;;;9.10;;
14858;SDS011;7521;51.700;6.874;2024-01-16T00:24:31;20.90;;;9.95;;
14858;SDS011;7521;51.700;6.874;2024-01-16T00:27:37;19.10;;;9.50;;
14858;SDS011;7521;51.700;6.874;2024-01-16T00:30:42;16.23;;;9.33;;
14858;SDS011;7521;51.700;6.874;2024-01-16T00:33:47;16.42;;;8.95;;
14858;SDS011;7521;51.700;6.874;2024-01-16T00:36:52;13.82;;;8.70;;
14858;SDS011;7521;51.700;6.874;2024-01-16T00:39:57;14.75;;;8.98;;
14858;SDS011;7521;51.700;6.874;2024-01-16T00:43:02;16.05;;;9.82;;
14858;SDS011;7521;51.700;6.874;2024-01-16T00:46:07;19.10;;;8.77;;
14858;SDS011;7521;51.700;6.874;2024-01-16T00:49:13;17.35;;;9.30;;
14858;SDS011;7521;51.700;6.874;2024-01-16T00:52:18;15.95;;;8.98;;
14858;SDS011;7521;51.700;6.874;2024-01-16T00:55:23;16.23;;;9.00;;
14858;SDS011;7521;51.700;6.874;2024-01-16T00:58:28;15.95;;;8.10;;
14858;SDS011;7521;51.700;6.874;2024-01-16T01:01:34;17.45;;;7.63;;
14858;SDS011;7521;51.700;6.874;2024-01-16T01:04:42;14.53;;;7.70;;
14858;SDS011;7521;51.700;6.874;2024-01-16T01:07:48;9.53;;;8.03;;
14858;SDS011;7521;51.700;6.874;2024-01-16T01:10:53;13.10;;;7.43;;
14858;SDS011;7521;51.700;6.874;2024-01-16T01:13:58;15.90;;;7.20;;
14858;SDS011;7521;51.700;6.874;2024-01-16T01:17:04;18.63;;;7.57;;
14858;SDS011;7521;51.700;6.874;2024-01-16T01:20:10;13.20;;;6.20;;
14858;SDS011;7521;51.700;6.874;2024-01-16T01:23:18;14.57;;;6.87;;
14858;SDS011;7521;51.700;6.874;2024-01-16T01:26:23;8.43;;;5.47;;
14858;SDS011;7521;51.700;6.874;2024-01-16T01:29:28;13.57;;;6.28;;
14858;SDS011;7521;51.700;6.874;2024-01-16T01:32:33;12.68;;;6.63;;
14858;SDS011;7521;51.700;6.874;2024-01-16T01:35:38;12.05;;;6.40;;
14858;SDS011;7521;51.700;6.874;2024-01-16T01:38:44;16.40;;;7.25;;
14858;SDS011;7521;51.700;6.874;2024-01-16T01:41:49;11.40;;;6.47;;
14858;SDS011;7521;51.700;6.874;2024-01-16T01:44:54;15.95;;;6.45;;
14858;SDS011;7521;51.700;6.874;2024-01-16T01:47:59;14.80;;;6.75;;
14858;SDS011;7521;51.700;6.874;2024-01-16T01:51:04;14.20;;;6.93;;
14858;SDS011;7521;51.700;6.874;2024-01-16T01:54:10;13.27;;;6.53;;
14858;SDS011;7521;51.700;6.874;2024-01-16T01:57:16;15.17;;;6.43;;
14858;SDS011;7521;51.700;6.874;2024-01-16T02:00:21;13.00;;;6.53;;
14858;SDS011;7521;51.700;6.874;2024-01-16T02:03:27;9.47;;;6.07;;
14858;SDS011;7521;51.700;6.874;2024-01-16T02:06:32;13.63;;;6.50;;
14858;SDS011;7521;51.700;6.874;2024-01-16T02:09:37;14.18;;;6.50;;
14858;SDS011;7521;51.700;6.874;2024-01-16T02:12:43;9.57;;;6.07;;
14858;SDS011;7521;51.700;6.874;2024-01-16T02:15:48;10.47;;;6.27;;
14858;SDS011;7521;51.700;6.874;2024-01-16T02:18:53;13.87;;;6.30;;
14858;SDS011;7521;51.700;6.874;2024-01-16T02:21:59;14.13;;;6.77;;
14858;SDS011;7521;51.700;6.874;2024-01-16T02:25:04;14.43;;;6.53;;
14858;SDS011;7521;51.700;6.874;2024-01-16T02:28:10;15.47;;;6.93;;
14858;SDS011;7521;51.700;6.874;2024-01-16T02:31:15;15.10;;;6.27;;
14858;SDS011;7521;51.700;6.874;2024-01-16T02:34:21;10.73;;;6.63;;
14858;SDS011;7521;51.700;6.874;2024-01-16T02:37:26;12.90;;;6.57;;
14858;SDS011;7521;51.700;6.874;2024-01-16T02:40:31;12.03;;;6.43;;
14858;SDS011;7521;51.700;6.874;2024-01-16T02:43:37;12.85;;;5.85;;
14858;SDS011;7521;51.700;6.874;2024-01-16T02:46:42;16.63;;;6.38;;
14858;SDS011;7521;51.700;6.874;2024-01-16T02:49:47;10.75;;;6.38;;
14858;SDS011;7521;51.700;6.874;2024-01-16T02:52:52;13.70;;;6.13;;
14858;SDS011;7521;51.700;6.874;2024-01-16T02:55:57;12.05;;;6.50;;
14858;SDS011;7521;51.700;6.874;2024-01-16T02:59:05;11.53;;;6.03;;
14858;SDS011;7521;51.700;6.874;2024-01-16T03:02:11;18.73;;;6.70;;
14858;SDS011;7521;51.700;6.874;2024-01-16T03:05:16;12.37;;;6.90;;
14858;SDS011;7521;51.700;6.874;2024-01-16T03:08:21;12.98;;;6.15;;
14858;SDS011;7521;51.700;6.874;2024-01-16T03:11:26;10.57;;;6.57;;
14858;SDS011;7521;51.700;6.874;2024-01-16T03:14:32;11.80;;;7.20;;
14858;SDS011;7521;51.700;6.874;2024-01-16T03:17:39;10.40;;;6.80;;
14858;SDS011;7521;51.700;6.874;2024-01-16T03:20:44;13.43;;;7.25;;
14858;SDS011;7521;51.700;6.874;2024-01-16T03:23:49;15.48;;;8.05;;
14858;SDS011;7521;51.700;6.874;2024-01-16T03:26:55;14.90;;;7.07;;
14858;SDS011;7521;51.700;6.874;2024-01-16T03:30:01;13.10;;;8.05;;
14858;SDS011;7521;51.700;6.874;2024-01-16T03:33:06;12.23;;;7.37;;
14858;SDS011;7521;51.700;6.874;2024-01-16T03:36:11;11.67;;;7.80;;
14858;SDS011;7521;51.700;6.874;2024-01-16T03:39:17;13.63;;;7.63;;
14858;SDS011;7521;51.700;6.874;2024-01-16T03:42:23;17.33;;;8.53;;
14858;SDS011;7521;51.700;6.874;2024-01-16T03:45:28;16.47;;;8.13;;
14858;SDS011;7521;51.700;6.874;2024-01-16T03:48:33;14.38;;;7.68;;
14858;SDS011;7521;51.700;6.874;2024-01-16T03:51:39;13.43;;;8.55;;
14858;SDS011;7521;51.700;6.874;2024-01-16T03:54:47;13.50;;;8.23;;
14858;SDS011;7521;51.700;6.874;2024-01-16T03:57:52;14.10;;;8.80;;
14858;SDS011;7521;51.700;6.874;2024-01-16T04:00:58;12.73;;;8.30;;
14858;SDS011;7521;51.700;6.874;2024-01-16T04:04:03;13.73;;;7.90;;
14858;SDS011;7521;51.700;6.874;2024-01-16T04:07:11;14.07;;;7.67;;
14858;SDS011;7521;51.700;6.874;2024-01-16T04:10:16;12.77;;;7.85;;
14858;SDS011;7521;51.700;6.874;2024-01-16T04:13:21;14.65;;;7.65;;
14858;SDS011;7521;51.700;6.874;2024-01-16T04:16:27;12.40;;;8.63;;
14858;SDS011;7521;51.700;6.874;2024-01-16T04:19:32;16.40;;;8.43;;
14858;SDS011;7521;51.700;6.874;2024-01-16T04:22:38;16.53;;;8.57;;
14858;SDS011;7521;51.700;6.874;2024-01-16T04:25:43;15.00;;;8.20;;
14858;SDS011;7521;51.700;6.874;2024-01-16T04:28:49;17.15;;;8.77;;
14858;SDS011;7521;51.700;6.874;2024-01-16T04:31:54;18.73;;;8.98;;
14858;SDS011;7521;51.700;6.874;2024-01-16T04:34:59;20.02;;;8.82;;
14858;SDS011;7521;51.700;6.874;2024-01-16T04:38:04;14.52;;;8.48;;
14858;SDS011;7521;51.700;6.874;2024-01-16T04:41:09;16.07;;;9.20;;
14858;SDS011;7521;51.700;6.874;2024-01-16T04:44:14;18.63;;;8.87;;
14858;SDS011;7521;51.700;6.874;2024-01-16T04:47:20;22.20;;;9.60;;
14858;SDS011;7521;51.700;6.874;2024-01-16T04:50:25;16.92;;;8.10;;
14858;SDS011;7521;51.700;6.874;2024-01-16T04:53:36;15.43;;;8.27;;
14858;SDS011;7521;51.700;6.874;2024-01-16T04:56:41;13.40;;;7.93;;
14858;SDS011;7521;51.700;6.874;2024-01-16T04:59:46;12.77;;;8.38;;
14858;SDS011;7521;51.700;6.874;2024-01-16T05:02:52;13.40;;;7.93;;
14858;SDS011;7521;51.700;6.874;2024-01-16T05:05:57;13.50;;;7.63;;
14858;SDS011;7521;51.700;6.874;2024-01-16T05:09:02;15.40;;;7.63;;
14858;SDS011;7521;51.700;6.874;2024-01-16T05:12:08;16.77;;;8.40;;
14858;SDS011;7521;51.700;6.874;2024-01-16T05:15:13;16.20;;;7.43;;
14858;SDS011;7521;51.700;6.874;2024-01-16T05:18:19;13.23;;;7.83;;
14858;SDS011;7521;51.700;6.874;2024-01-16T05:21:24;18.80;;;7.77;;
14858;SDS011;7521;51.700;6.874;2024-01-16T05:24:29;14.02;;;7.50;;
14858;SDS011;7521;51.700;6.874;2024-01-16T05:27:35;15.13;;;7.18;;
14858;SDS011;7521;51.700;6.874;2024-01-16T05:30:40;14.80;;;7.10;;
14858;SDS011;7521;51.700;6.874;2024-01-16T05:33:45;16.40;;;7.40;;
14858;SDS011;7521;51.700;6.874;2024-01-16T05:36:50;11.25;;;6.43;;
14858;SDS011;7521;51.700;6.874;2024-01-16T05:39:56;9.13;;;6.07;;
14858;SDS011;7521;51.700;6.874;2024-01-16T05:43:01;17.73;;;7.63;;
14858;SDS011;7521;51.700;6.874;2024-01-16T05:46:06;11.50;;;5.27;;
14858;SDS011;7521;51.700;6.874;2024-01-16T05:49:12;17.38;;;5.90;;
14858;SDS011;7521;51.700;6.874;2024-01-16T05:52:17;11.67;;;5.80;;
14858;SDS011;7521;51.700;6.874;2024-01-16T05:55:22;12.15;;;5.82;;
14858;SDS011;7521;51.700;6.874;2024-01-16T05:58:27;13.07;;;5.33;;
14858;SDS011;7521;51.700;6.874;2024-01-16T06:01:32;11.73;;;5.43;;
14858;SDS011;7521;51.700;6.874;2024-01-16T06:04:37;11.38;;;5.03;;
14858;SDS011;7521;51.700;6.874;2024-01-16T06:07:43;10.80;;;5.72;;
14858;SDS011;7521;51.700;6.874;2024-01-16T06:10:48;9.57;;;5.43;;
14858;SDS011;7521;51.700;6.874;2024-01-16T06:13:53;11.98;;;5.10;;
14858;SDS011;7521;51.700;6.874;2024-01-16T06:16:58;9.20;;;5.03;;
14858;SDS011;7521;51.700;6.874;2024-01-16T06:20:04;20.07;;;6.23;;
14858;SDS011;7521;51.700;6.874;2024-01-16T06:23:11;13.03;;;5.30;;
14858;SDS011;7521;51.700;6.874;2024-01-16T06:26:16;11.15;;;6.00;;
14858;SDS011;7521;51.700;6.874;2024-01-16T06:29:22;14.93;;;7.10;;
14858;SDS011;7521;51.700;6.874;2024-01-16T06:32:27;16.88;;;7.18;;
14858;SDS011;7521;51.700;6.874;2024-01-16T06:35:32;15.23;;;7.22;;
14858;SDS011;7521;51.700;6.874;2024-01-16T06:38:38;16.10;;;7.80;;
14858;SDS011;7521;51.700;6.874;2024-01-16T06:41:43;15.67;;;8.13;;
14858;SDS011;7521;51.700;6.874;2024-01-16T06:44:48;15.15;;;8.20;;
14858;SDS011;7521;51.700;6.874;2024-01-16T06:47:53;20.92;;;9.73;;
14858;SDS011;7521;51.700;6.874;2024-01-16T06:50:58;20.88;;;10.48;;
14858;SDS011;7521;51.700;6.874;2024-01-16T06:54:04;21.23;;;10.37;;
14858;SDS011;7521;51.700;6.874;2024-01-16T06:57:10;19.90;;;12.07;;
14858;SDS011;7521;51.700;6.874;2024-01-16T07:00:15;20.03;;;12.20;;
14858;SDS011;7521;51.700;6.874;2024-01-16T07:03:21;25.93;;;13.13;;
14858;SDS011;7521;51.700;6.874;2024-01-16T07:06:26;23.43;;;13.07;;
14858;SDS011;7521;51.700;6.874;2024-01-16T07:09:31;26.08;;;15.05;;
14858;SDS011;7521;51.700;6.874;2024-01-16T07:12:36;22.83;;;15.45;;
14858;SDS011;7521;51.700;6.874;2024-01-16T07:15:41;28.25;;;16.27;;
14858;SDS011;7521;51.700;6.874;2024-01-16T07:18:46;33.28;;;17.60;;
14858;SDS011;7521;51.700;6.874;2024-01-16T07:21:52;34.15;;;19.13;;
14858;SDS011;7521;51.700;6.874;2024-01-16T07:24:57;30.70;;;18.27;;
14858;SDS011;7521;51.700;6.874;2024-01-16T07:28:02;39.47;;;18.95;;
14858;SDS011;7521;51.700;6.874;2024-01-16T07:31:07;33.53;;;19.37;;
14858;SDS011;7521;51.700;6.874;2024-01-16T07:34:14;32.80;;;19.63;;
14858;SDS011;7521;51.700;6.874;2024-01-16T07:37:24;33.85;;;23.33;;
14858;SDS011;7521;51.700;6.874;2024-01-16T07:40:30;30.90;;;18.90;;
14858;SDS011;7521;51.700;6.874;2024-01-16T07:43:35;32.42;;;18.27;;
14858;SDS011;7521;51.700;6.874;2024-01-16T07:46:40;29.77;;;15.37;;
14858;SDS011;7521;51.700;6.874;2024-01-16T07:49:45;27.40;;;15.40;;
14858;SDS011;7521;51.700;6.874;2024-01-16T07:52:50;26.60;;;14.82;;
14858;SDS011;7521;51.700;6.874;2024-01-16T07:55:56;22.57;;;14.70;;
14858;SDS011;7521;51.700;6.874;2024-01-16T07:59:01;27.93;;;15.73;;
14858;SDS011;7521;51.700;6.874;2024-01-16T08:02:06;26.13;;;13.93;;
14858;SDS011;7521;51.700;6.874;2024-01-16T08:05:11;28.73;;;13.18;;
14858;SDS011;7521;51.700;6.874;2024-01-16T08:08:16;20.90;;;12.15;;
14858;SDS011;7521;51.700;6.874;2024-01-16T08:11:23;19.20;;;11.23;;
14858;SDS011;7521;51.700;6.874;2024-01-16T08:14:28;20.53;;;9.73;;
14858;SDS011;7521;51.700;6.874;2024-01-16T08:17:34;16.53;;;8.57;;
14858;SDS011;7521;51.700;6.874;2024-01-16T08:20:39;17.48;;;8.23;;
14858;SDS011;7521;51.700;6.874;2024-01-16T08:23:44;19.47;;;8.00;;
14858;SDS011;7521;51.700;6.874;2024-01-16T08:26:49;14.93;;;7.90;;
14858;SDS011;7521;51.700;6.874;2024-01-16T08:29:54;19.57;;;7.90;;
14858;SDS011;7521;51.700;6.874;2024-01-16T08:33:00;14.57;;;7.00;;
14858;SDS011;7521;51.700;6.874;2024-01-16T08:36:05;14.07;;;6.63;;
14858;SDS011;7521;51.700;6.874;2024-01-16T08:39:10;13.53;;;6.37;;
14858;SDS011;7521;51.700;6.874;2024-01-16T08:42:15;17.30;;;6.75;;
14858;SDS011;7521;51.700;6.874;2024-01-16T08:45:22;12.93;;;6.10;;
14858;SDS011;7521;51.700;6.874;2024-01-16T08:48:27;15.47;;;6.63;;
14858;SDS011;7521;51.700;6.874;2024-01-16T08:51:33;12.93;;;6.27;;
14858;SDS011;7521;51.700;6.874;2024-01-16T08:54:38;18.88;;;5.30;;
14858;SDS011;7521;51.700;6.874;2024-01-16T08:57:43;18.27;;;5.55;;
14858;SDS011;7521;51.700;6.874;2024-01-16T09:00:48;16.75;;;5.18;;
14858;SDS011;7521;51.700;6.874;2024-01-16T09:03:54;13.27;;;5.73;;
14858;SDS011;7521;51.700;6.874;2024-01-16T09:06:59;14.35;;;5.43;;
14858;SDS011;7521;51.700;6.874;2024-01-16T09:10:05;16.83;;;5.77;;
14858;SDS011;7521;51.700;6.874;2024-01-16T09:13:10;21.13;;;6.10;;
14858;SDS011;7521;51.700;6.874;2024-01-16T09:16:16;16.07;;;6.00;;
14858;SDS011;7521;51.700;6.874;2024-01-16T09:19:21;14.38;;;4.82;;
14858;SDS011;7521;51.700;6.874;2024-01-16T09:22:26;12.32;;;5.05;;
14858;SDS011;7521;51.700;6.874;2024-01-16T09:25:32;14.30;;;4.77;;
14858;SDS011;7521;51.700;6.874;2024-01-16T09:28:37;14.75;;;5.35;;
14858;SDS011;7521;51.700;6.874;2024-01-16T09:31:42;15.70;;;5.37;;
14858;SDS011;7521;51.700;6.874;2024-01-16T09:34:47;13.55;;;5.07;;
14858;SDS011;7521;51.700;6.874;2024-01-16T09:37:55;16.52;;;4.68;;
14858;SDS011;7521;51.700;6.874;2024-01-16T09:41:00;11.23;;;4.90;;
14858;SDS011;7521;51.700;6.874;2024-01-16T09:44:08;11.73;;;4.30;;
14858;SDS011;7521;51.700;6.874;2024-01-16T09:47:13;10.00;;;4.20;;
14858;SDS011;7521;51.700;6.874;2024-01-16T09:50:19;14.87;;;4.37;;
14858;SDS011;7521;51.700;6.874;2024-01-16T09:53:24;7.83;;;4.23;;
14858;SDS011;7521;51.700;6.874;2024-01-16T09:56:29;11.90;;;4.40;;
14858;SDS011;7521;51.700;6.874;2024-01-16T09:59:36;9.40;;;4.23;;
14858;SDS011;7521;51.700;6.874;2024-01-16T10:02:44;11.10;;;4.10;;
14858;SDS011;7521;51.700;6.874;2024-01-16T10:05:49;9.90;;;4.03;;
14858;SDS011;7521;51.700;6.874;2024-01-16T10:08:55;11.93;;;3.53;;
14858;SDS011;7521;51.700;6.874;2024-01-16T10:12:00;11.70;;;3.93;;
14858;SDS011;7521;51.700;6.874;2024-01-16T10:15:06;9.97;;;3.50;;
14858;SDS011;7521;51.700;6.874;2024-01-16T10:21:48;13.40;;;3.60;;
14858;SDS011;7521;51.700;6.874;2024-01-16T10:25:06;10.35;;;3.72;;
14858;SDS011;7521;51.700;6.874;2024-01-16T10:28:12;9.93;;;3.60;;
14858;SDS011;7521;51.700;6.874;2024-01-16T10:31:30;11.73;;;4.07;;
14858;SDS011;7521;51.700;6.874;2024-01-16T10:34:36;10.23;;;3.60;;
14858;SDS011;7521;51.700;6.874;2024-01-16T10:40:47;13.60;;;3.87;;
14858;SDS011;7521;51.700;6.874;2024-01-16T10:44:05;12.93;;;4.72;;
14858;SDS011;7521;51.700;6.874;2024-01-16T10:47:12;10.40;;;3.63;;
14858;SDS011;7521;51.700;6.874;2024-01-16T10:50:17;12.43;;;4.40;;
14858;SDS011;7521;51.700;6.874;2024-01-16T10:53:22;9.15;;;4.10;;
14858;SDS011;7521;51.700;6.874;2024-01-16T10:56:31;11.53;;;4.23;;
14858;SDS011;7521;51.700;6.874;2024-01-16T11:02:48;14.60;;;4.47;;
14858;SDS011;7521;51.700;6.874;2024-01-16T11:05:54;9.53;;;4.27;;
14858;SDS011;7521;51.700;6.874;2024-01-16T11:09:02;9.13;;;4.40;;
14858;SDS011;7521;51.700;6.874;2024-01-16T11:12:08;15.63;;;4.67;;
14858;SDS011;7521;51.700;6.874;2024-01-16T11:15:13;11.47;;;4.40;;
14858;SDS011;7521;51.700;6.874;2024-01-16T11:18:19;12.70;;;4.17;;
14858;SDS011;7521;51.700;6.874;2024-01-16T11:21:24;14.83;;;4.23;;
14858;SDS011;7521;51.700;6.874;2024-01-16T11:24:30;9.27;;;4.60;;
14858;SDS011;7521;51.700;6.874;2024-01-16T11:27:38;11.15;;;4.22;;
14858;SDS011;7521;51.700;6.874;2024-01-16T11:30:43;10.83;;;4.17;;
14858;SDS011;7521;51.700;6.874;2024-01-16T11:33:49;11.23;;;3.97;;
14858;SDS011;7521;51.700;6.874;2024-01-16T11:36:54;12.43;;;4.95;;
14858;SDS011;7521;51.700;6.874;2024-01-16T11:50:11;8.03;;;4.10;;
14858;SDS011;7521;51.700;6.874;2024-01-16T12:03:18;13.63;;;5.07;;
14858;SDS011;7521;51.700;6.874;2024-01-16T12:06:24;16.20;;;4.53;;
14858;SDS011;7521;51.700;6.874;2024-01-16T12:09:30;12.93;;;5.40;;
14858;SDS011;7521;51.700;6.874;2024-01-16T12:12:35;12.50;;;4.45;;
14858;SDS011;7521;51.700;6.874;2024-01-16T12:15:40;11.73;;;4.20;;
14858;SDS011;7521;51.700;6.874;2024-01-16T12:18:46;10.57;;;3.90;;
14858;SDS011;7521;51.700;6.874;2024-01-16T12:21:51;8.73;;;3.87;;
14858;SDS011;7521;51.700;6.874;2024-01-16T12:24:57;9.10;;;3.17;;
14858;SDS011;7521;51.700;6.874;2024-01-16T12:28:04;19.90;;;5.33;;
14858;SDS011;7521;51.700;6.874;2024-01-16T12:31:09;12.27;;;4.40;;
14858;SDS011;7521;51.700;6.874;2024-01-16T12:34:15;10.02;;;4.00;;
14858;SDS011;7521;51.700;6.874;2024-01-16T12:37:20;10.90;;;4.20;;
14858;SDS011;7521;51.700;6.874;2024-01-16T12:40:25;10.70;;;4.50;;
14858;SDS011;7521;51.700;6.874;2024-01-16T12:43:31;8.98;;;3.90;;
14858;SDS011;7521;51.700;6.874;2024-01-16T12:46:36;12.37;;;4.50;;
14858;SDS011;7521;51.700;6.874;2024-01-16T12:49:42;10.50;;;4.10;;
14858;SDS011;7521;51.700;6.874;2024-01-16T12:52:50;7.97;;;4.47;;
14858;SDS011;7521;51.700;6.874;2024-01-16T12:55:59;14.00;;;4.93;;
14858;SDS011;7521;51.700;6.874;2024-01-16T12:59:13;12.27;;;4.63;;
14858;SDS011;7521;51.700;6.874;2024-01-16T13:02:19;12.03;;;5.07;;
14858;SDS011;7521;51.700;6.874;2024-01-16T13:05:25;10.40;;;4.53;;
14858;SDS011;7521;51.700;6.874;2024-01-16T13:08:30;14.53;;;5.23;;
14858;SDS011;7521;51.700;6.874;2024-01-16T13:11:46;9.00;;;4.27;;
14858;SDS011;7521;51.700;6.874;2024-01-16T13:14:51;13.23;;;4.47;;
14858;SDS011;7521;51.700;6.874;2024-01-16T13:17:56;13.18;;;4.57;;
14858;SDS011;7521;51.700;6.874;2024-01-16T13:21:01;10.50;;;3.75;;
14858;SDS011;7521;51.700;6.874;2024-01-16T13:24:07;7.43;;;4.13;;
14858;SDS011;7521;51.700;6.874;2024-01-16T13:27:13;14.50;;;4.70;;
14858;SDS011;7521;51.700;6.874;2024-01-16T13:30:19;9.00;;;4.20;;
14858;SDS011;7521;51.700;6.874;2024-01-16T13:33:24;11.88;;;4.65;;
14858;SDS011;7521;51.700;6.874;2024-01-16T13:36:33;11.17;;;5.23;;
14858;SDS011;7521;51.700;6.874;2024-01-16T13:39:38;10.13;;;4.65;;
14858;SDS011;7521;51.700;6.874;2024-01-16T13:42:43;19.92;;;6.20;;
14858;SDS011;7521;51.700;6.874;2024-01-16T13:45:48;12.38;;;5.05;;
14858;SDS011;7521;51.700;6.874;2024-01-16T13:48:54;13.23;;;5.10;;
14858;SDS011;7521;51.700;6.874;2024-01-16T13:51:59;10.90;;;5.13;;
14858;SDS011;7521;51.700;6.874;2024-01-16T13:55:05;11.55;;;4.97;;
14858;SDS011;7521;51.700;6.874;2024-01-16T13:58:10;10.00;;;5.13;;
14858;SDS011;7521;51.700;6.874;2024-01-16T14:01:15;12.07;;;4.93;;
14858;SDS011;7521;51.700;6.874;2024-01-16T14:04:21;13.07;;;5.00;;
14858;SDS011;7521;51.700;6.874;2024-01-16T14:07:26;10.18;;;4.95;;
14858;SDS011;7521;51.700;6.874;2024-01-16T14:10:31;13.98;;;4.97;;
14858;SDS011;7521;51.700;6.874;2024-01-16T14:13:36;16.47;;;5.23;;
14858;SDS011;7521;51.700;6.874;2024-01-16T14:16:42;10.07;;;5.10;;
14858;SDS011;7521;51.700;6.874;2024-01-16T14:19:47;11.10;;;5.30;;
14858;SDS011;7521;51.700;6.874;2024-01-16T14:22:52;10.70;;;5.05;;
14858;SDS011;7521;51.700;6.874;2024-01-16T14:25:58;16.23;;;5.47;;
14858;SDS011;7521;51.700;6.874;2024-01-16T14:29:04;12.37;;;5.20;;
14858;SDS011;7521;51.700;6.874;2024-01-16T14:32:11;15.60;;;6.00;;
14858;SDS011;7521;51.700;6.874;2024-01-16T14:35:16;11.88;;;5.53;;
14858;SDS011;7521;51.700;6.874;2024-01-16T14:38:22;12.37;;;5.40;;
14858;SDS011;7521;51.700;6.874;2024-01-16T14:41:27;10.80;;;5.07;;
14858;SDS011;7521;51.700;6.874;2024-01-16T14:44:32;16.03;;;5.73;;
14858;SDS011;7521;51.700;6.874;2024-01-16T14:47:38;15.27;;;6.43;;
14858;SDS011;7521;51.700;6.874;2024-01-16T14:50:43;14.77;;;5.43;;
14858;SDS011;7521;51.700;6.874;2024-01-16T14:53:48;13.00;;;5.77;;
14858;SDS011;7521;51.700;6.874;2024-01-16T14:56:54;14.65;;;6.88;;
14858;SDS011;7521;51.700;6.874;2024-01-16T14:59:59;12.73;;;6.00;;
14858;SDS011;7521;51.700;6.874;2024-01-16T15:03:04;12.32;;;5.65;;
14858;SDS011;7521;51.700;6.874;2024-01-16T15:06:10;13.33;;;6.43;;
14858;SDS011;7521;51.700;6.874;2024-01-16T15:09:17;14.60;;;6.43;;
14858;SDS011;7521;51.700;6.874;2024-01-16T15:12:23;10.17;;;5.67;;
14858;SDS011;7521;51.700;6.874;2024-01-16T15:15:28;15.55;;;5.82;;
14858;SDS011;7521;51.700;6.874;2024-01-16T15:18:33;12.53;;;6.13;;
14858;SDS011;7521;51.700;6.874;2024-01-16T15:21:38;18.52;;;5.90;;
14858;SDS011;7521;51.700;6.874;2024-01-16T15:24:44;10.70;;;5.77;;
14858;SDS011;7521;51.700;6.874;2024-01-16T15:27:51;15.37;;;6.20;;
14858;SDS011;7521;51.700;6.874;2024-01-16T15:30:58;10.90;;;5.87;;
14858;SDS011;7521;51.700;6.874;2024-01-16T15:34:03;13.68;;;6.15;;
14858;SDS011;7521;51.700;6.874;2024-01-16T15:37:09;10.63;;;6.23;;
14858;SDS011;7521;51.700;6.874;2024-01-16T15:40:14;12.40;;;6.07;;
14858;SDS011;7521;51.700;6.874;2024-01-16T15:43:20;13.83;;;6.00;;
14858;SDS011;7521;51.700;6.874;2024-01-16T15:46:25;13.43;;;5.85;;
14858;SDS011;7521;51.700;6.874;2024-01-16T15:49:31;11.57;;;5.87;;
14858;SDS011;7521;51.700;6.874;2024-01-16T15:52:36;13.30;;;5.90;;
14858;SDS011;7521;51.700;6.874;2024-01-16T15:55:41;12.40;;;6.90;;
14858;SDS011;7521;51.700;6.874;2024-01-16T15:58:47;12.57;;;6.23;;
14858;SDS011;7521;51.700;6.874;2024-01-16T16:01:52;16.42;;;6.28;;
14858;SDS011;7521;51.700;6.874;2024-01-16T16:04:57;11.43;;;5.77;;
14858;SDS011;7521;51.700;6.874;2024-01-16T16:08:02;9.97;;;5.47;;
14858;SDS011;7521;51.700;6.874;2024-01-16T16:11:09;16.60;;;6.90;;
14858;SDS011;7521;51.700;6.874;2024-01-16T16:14:14;11.68;;;6.22;;
14858;SDS011;7521;51.700;6.874;2024-01-16T16:17:20;15.73;;;7.27;;
14858;SDS011;7521;51.700;6.874;2024-01-16T16:20:25;15.30;;;6.25;;
14858;SDS011;7521;51.700;6.874;2024-01-16T16:23:30;10.73;;;5.57;;
14858;SDS011;7521;51.700;6.874;2024-01-16T16:26:36;11.73;;;6.35;;
14858;SDS011;7521;51.700;6.874;2024-01-16T16:29:42;11.63;;;6.60;;
14858;SDS011;7521;51.700;6.874;2024-01-16T16:32:47;14.45;;;5.95;;
14858;SDS011;7521;51.700;6.874;2024-01-16T16:35:52;11.18;;;6.10;;
14858;SDS011;7521;51.700;6.874;2024-01-16T16:38:58;15.47;;;6.33;;
14858;SDS011;7521;51.700;6.874;2024-01-16T16:42:03;13.13;;;6.77;;
14858;SDS011;7521;51.700;6.874;2024-01-16T16:45:09;15.93;;;9.20;;
14858;SDS011;7521;51.700;6.874;2024-01-16T16:48:16;26.13;;;13.37;;
14858;SDS011;7521;51.700;6.874;2024-01-16T16:51:22;26.27;;;8.63;;
14858;SDS011;7521;51.700;6.874;2024-01-16T16:54:28;14.20;;;7.30;;
14858;SDS011;7521;51.700;6.874;2024-01-16T16:57:34;14.27;;;7.63;;
14858;SDS011;7521;51.700;6.874;2024-01-16T17:00:40;52.37;;;30.77;;
14858;SDS011;7521;51.700;6.874;2024-01-16T17:03:45;20.00;;;10.65;;
14858;SDS011;7521;51.700;6.874;2024-01-16T17:06:51;25.33;;;13.33;;
14858;SDS011;7521;51.700;6.874;2024-01-16T17:09:58;38.93;;;23.73;;
14858;SDS011;7521;51.700;6.874;2024-01-16T17:13:04;17.73;;;12.77;;
14858;SDS011;7521;51.700;6.874;2024-01-16T17:16:09;15.52;;;9.77;;
14858;SDS011;7521;51.700;6.874;2024-01-16T17:19:14;13.75;;;9.75;;
14858;SDS011;7521;51.700;6.874;2024-01-16T17:22:19;17.85;;;8.05;;
14858;SDS011;7521;51.700;6.874;2024-01-16T17:25:24;16.92;;;12.13;;
14858;SDS011;7521;51.700;6.874;2024-01-16T17:28:29;18.38;;;8.25;;
14858;SDS011;7521;51.700;6.874;2024-01-16T17:31:35;16.80;;;10.10;;
14858;SDS011;7521;51.700;6.874;2024-01-16T17:34:41;15.73;;;8.13;;
14858;SDS011;7521;51.700;6.874;2024-01-16T17:37:47;14.93;;;7.33;;
14858;SDS011;7521;51.700;6.874;2024-01-16T17:40:52;11.77;;;7.80;;
14858;SDS011;7521;51.700;6.874;2024-01-16T17:43:57;13.07;;;6.40;;
14858;SDS011;7521;51.700;6.874;2024-01-16T17:47:03;11.40;;;6.73;;
14858;SDS011;7521;51.700;6.874;2024-01-16T17:50:08;14.17;;;7.80;;
14858;SDS011;7521;51.700;6.874;2024-01-16T17:53:13;15.10;;;7.13;;
14858;SDS011;7521;51.700;6.874;2024-01-16T17:56:19;14.40;;;7.10;;
14858;SDS011;7521;51.700;6.874;2024-01-16T17:59:24;14.57;;;7.05;;
14858;SDS011;7521;51.700;6.874;2024-01-16T18:02:35;12.50;;;6.20;;
14858;SDS011;7521;51.700;6.874;2024-01-16T18:05:43;13.63;;;7.63;;
14858;SDS011;7521;51.700;6.874;2024-01-16T18:08:48;17.65;;;7.95;;
14858;SDS011;7521;51.700;6.874;2024-01-16T18:11:54;11.30;;;6.67;;
14858;SDS011;7521;51.700;6.874;2024-01-16T18:15:03;14.43;;;6.70;;
14858;SDS011;7521;51.700;6.874;2024-01-16T18:18:09;13.20;;;6.93;;
14858;SDS011;7521;51.700;6.874;2024-01-16T18:21:18;43.00;;;23.77;;
14858;SDS011;7521;51.700;6.874;2024-01-16T18:24:23;26.65;;;14.43;;
14858;SDS011;7521;51.700;6.874;2024-01-16T18:27:28;16.70;;;10.35;;
14858;SDS011;7521;51.700;6.874;2024-01-16T18:30:33;11.30;;;7.22;;
14858;SDS011;7521;51.700;6.874;2024-01-16T18:33:39;13.13;;;8.20;;
14858;SDS011;7521;51.700;6.874;2024-01-16T18:36:48;13.50;;;7.43;;
14858;SDS011;7521;51.700;6.874;2024-01-16T18:39:54;13.20;;;7.53;;
14858;SDS011;7521;51.700;6.874;2024-01-16T18:42:59;18.67;;;7.55;;
14858;SDS011;7521;51.700;6.874;2024-01-16T18:46:04;14.43;;;8.03;;
14858;SDS011;7521;51.700;6.874;2024-01-16T18:49:10;13.20;;;7.77;;
14858;SDS011;7521;51.700;6.874;2024-01-16T18:52:17;18.00;;;7.53;;
14858;SDS011;7521;51.700;6.874;2024-01-16T18:55:23;13.35;;;6.72;;
14858;SDS011;7521;51.700;6.874;2024-01-16T18:58:28;12.17;;;6.50;;
14858;SDS011;7521;51.700;6.874;2024-01-16T19:01:33;13.98;;;6.72;;
14858;SDS011;7521;51.700;6.874;2024-01-16T19:04:39;18.27;;;7.13;;
14858;SDS011;7521;51.700;6.874;2024-01-16T19:07:51;13.90;;;7.00;;
14858;SDS011;7521;51.700;6.874;2024-01-16T19:10:56;14.15;;;6.63;;